Погода METAR - Новосибирск (Толмачево)

Код аэропорта ICAO:
Кемерово, Абакан, Красноярск, Новосибирск
Код METAR: UNNT 230330Z 18007MPS 9999 SCT050CB 00/M05 Q1020 R25/090070 R34/090070 NOSIG RMK QFE755/1006
TAF UNNT 230200Z 2303/2403 18007G15MPS 9999 BKN050CB 
     FM230900 21008G15MPS 9999 BKN030CB 
     TEMPO 2312/2403 3100 -SHSNRA BKN005 BKN011CB
       

Погода - Сейчас

Время: 2019-10-23 10:30, местное
Направление ветра: Юг (180°)
Скорость ветра: 7 м/с
Видимость:
Температура: 0°C
Точка росы: -5°C
Атмосферное давление: 1020 гПа

Архив погоды

Ошибка.Сообщения в формате TAF пока не поддерживаются: TAF UNNT 142000Z 1421/1521 19005G10MPS CAVOK FM150400 22008G15MPS 9999 BKN016CB TEMPO 1505/1515 3100 -SHRA TEMPO 1517/1521 23003G08MPS
Ошибка.Сообщения в формате TAF пока не поддерживаются: TAF UNNT 140500Z 1406/1506 17007G15MPS CAVOK BECMG 1501/1503 22008G15MPS BKN030CB
Ошибка.Сообщения в формате TAF пока не поддерживаются: TAF UNNT 130200Z 1303/1403 17003G08MPS CAVOK
Ошибка.Сообщения в формате TAF пока не поддерживаются: TAF UNNT 111700Z 1118/1218 36003G08MPS CAVOK TEMPO 1121/1203 3100 BR FU
Время, местное Направление Скорость, м/с Температура, °C Точка росы, °C Давление, гПа
2019-10-23 10:30 Ю (180°) 7 0 -5 1020
2019-10-23 08:30 Ю (170°) 6 -1 -5 1020
2019-10-21 20:00 ЮЗ (230°) 4 -5 -9 1034
2019-10-20 13:30 СВ (30°) 4 -3 -10 1027
2019-10-19 19:30 Штиль 0 -3 -7 1024
2019-10-17 19:30 ЗЮЗ (240°) 6 4 3 1006
0
0
0
0
2019-10-08 09:30 З (270°) 1 5 4 1022
2019-10-05 05:00 ЗЮЗ (260°) 3 4 1 1024
2019-10-04 20:30 ЮЮЗ (200°) 5 11 -1 1021
2019-10-04 09:30 Ю (180°) 5 5 -1 1023
2019-10-03 17:30 ЮЗ (210°) 5 14 -1 1028
2019-09-29 04:30 ВЮВ (110°) 2 -1 -3 1008
2019-09-29 02:30 Ю (180°) 4 3 0 1009
2019-09-26 13:00 ЗЮЗ (260°) 5 9 -5 1020
2019-09-25 21:00 ЗЮЗ (240°) 3 5 -2 1018
2019-09-23 06:00 ЮЮВ (160°) 5 19 7 996
2019-09-20 15:30 ЮЗ (230°) 11, порывы до 16 23 1 1006
2019-09-19 17:30 Ю (190°) 5 22 10 1013
2019-09-19 05:00 Ю (170°) 4 13 10 1012
2019-09-19 03:30 ЮЮВ (160°) 4 15 10 1013
2019-09-18 13:30 ЮЗ (230°) 6 20 6 1016
2019-09-18 10:00 ЮЮЗ (200°) 5 16 8 1016
2019-09-14 10:30 ЮЮЗ (200°) 4 9 6 1019
2019-09-11 06:30 ЗЮЗ (250°) 2 9 9 1014
2019-09-10 15:30 ССВ (20°) 4 19 9 1013
2019-09-10 14:00 СВ (50°) 3 17 9 1013
2019-09-10 05:00 Ю (170°) 1 8 7 1012
2019-09-08 16:00 ЮВ (120°) 3 21 10 1015
2019-09-07 21:30 ВЮВ (110°) 3 15 10 1017
2019-09-03 09:00 ЮВ (130°) 2 12 11 1009
2019-09-03 04:00 Переменный 1 7 7 1010
2019-09-02 20:30 ЮЮВ (150°) 1 13 8 1011
2019-09-02 19:00 ЮЮВ (160°) 3 17 6 1011
2019-09-02 06:00 ЮЮЗ (200°) 2 9 8 1013
2019-08-31 22:00 З (280°) 6 17 9 1001
2019-08-30 00:30 ССВ (20°) 3 16 12 1008
2019-08-29 20:30 СВ (50°) 3 19 12 1010
2019-08-28 09:00 ЗСЗ (290°) 3 13 12 1015
2019-08-26 20:00 ЮВ (120°) 3 21 11 1013
2019-08-25 05:00 ЗЮЗ (240°) 3 16 12 1012
2019-08-24 09:30 ЮЮЗ (200°) 2 15 12 1015
2019-08-23 20:00 СЗ (300°) 3 18 13 1013
2019-08-23 09:00 СЗ (310°) 3 12 10 1010
2019-08-22 09:00 Штиль 0 0 300